KHKS

Hawkins Field Airport

Jackson, Mississippi, USA
METAR KHKS 171411Z 00000KT 1 1/4SM BR BKN002 06/06 A3029 RMK AO2 T00610061
Observed Flight Rules
Dec-17 @ 14:11 UTC (18 minutes ago) Instrument Flight Rules
Visibility Clouds Conditions
1 1/4 miles
  • Broken at 200' AGL
  • Mist
Temperatures Readings
Current 6°C / 43°F
Dewpoint 6°C / 43°F
Humidity 100%
Altimeter 30.29" Hg
Pressure 1026 hPa
Elevation 108
METAR KHKS 171411Z 00000KT 1 1/4SM BR BKN002 06/06 A3029 RMK AO2 T00610061
Observed Flight Rules
Dec-17 @ 14:11 UTC
(18 minutes ago)
LIFR
Clouds
  • Broken at 200' AGL
Conditions
  • Mist
Temperature Dewpoint
6°C / 43°F 6°C / 43°F
Humidity Altimeter Pressure
100% 30.29" Hg 1026 hPa